createdAt,value
2019-06-10T00:00:42.215Z,54.13
2019-06-10T00:02:50.766Z,53.93
2019-06-10T00:04:57.632Z,53.80
2019-06-10T00:07:05.408Z,53.98
2019-06-10T00:09:12.663Z,53.92
2019-06-10T00:11:21.307Z,53.93
2019-06-10T00:13:27.352Z,54.01
2019-06-10T00:15:33.960Z,54.03
2019-06-10T00:17:52.681Z,53.99
2019-06-10T00:19:51.015Z,54.15
2019-06-10T00:21:57.339Z,54.15
2019-06-10T00:24:05.341Z,54.34
2019-06-10T00:26:12.688Z,54.18
2019-06-10T00:28:21.552Z,54.30
2019-06-10T00:30:27.498Z,54.21
2019-06-10T00:32:33.962Z,54.13
2019-06-10T00:34:41.946Z,54.12
2019-06-10T00:36:50.968Z,54.02
2019-06-10T00:38:59.257Z,54.18
2019-06-10T00:41:07.672Z,54.14
2019-06-10T00:43:14.086Z,54.11
2019-06-10T00:45:21.639Z,54.11
2019-06-10T00:47:30.648Z,54.23
2019-06-10T00:49:36.618Z,54.02
2019-06-10T00:51:43.013Z,53.95
2019-06-10T00:53:51.420Z,53.96
2019-06-10T00:55:57.653Z,54.03
2019-06-10T00:58:05.691Z,53.92
2019-06-10T01:00:24.888Z,53.82
2019-06-10T01:02:22.533Z,53.93
2019-06-10T01:04:29.018Z,53.93
2019-06-10T01:06:35.554Z,54.02
2019-06-10T01:08:42.125Z,53.64
2019-06-10T01:10:51.988Z,53.69
2019-06-10T01:13:00.745Z,53.61
2019-06-10T01:15:07.455Z,53.58
2019-06-10T01:17:15.385Z,53.57
2019-06-10T01:19:22.068Z,53.67
2019-06-10T01:21:31.160Z,53.68
2019-06-10T01:23:36.878Z,53.68
2019-06-10T01:25:45.046Z,53.63
2019-06-10T01:27:52.778Z,53.67
2019-06-10T01:30:01.496Z,53.73
2019-06-10T01:32:11.856Z,53.80
2019-06-10T01:34:18.344Z,53.71
2019-06-10T01:36:25.005Z,53.71
2019-06-10T01:38:31.731Z,53.34
2019-06-10T01:40:38.498Z,53.31
2019-06-10T01:42:45.029Z,53.39
2019-06-10T01:44:51.460Z,53.12
2019-06-10T01:46:57.849Z,53.22
2019-06-10T01:49:04.328Z,53.08
2019-06-10T01:51:13.456Z,53.17
2019-06-10T01:53:22.014Z,53.18
2019-06-10T01:55:31.210Z,53.32
2019-06-10T01:57:41.119Z,53.56
2019-06-10T01:59:46.903Z,53.92
2019-06-10T02:01:57.923Z,54.05
2019-06-10T02:04:04.657Z,54.37
2019-06-10T02:06:14.598Z,54.16
2019-06-10T02:08:21.989Z,54.22
2019-06-10T02:10:27.523Z,54.30
2019-06-10T02:12:34.305Z,54.66
2019-06-10T02:14:41.619Z,54.75
2019-06-10T02:16:50.546Z,55.08
2019-06-10T02:19:00.526Z,55.11
2019-06-10T02:21:04.744Z,55.61
2019-06-10T02:23:13.933Z,55.75
2019-06-10T02:25:21.712Z,55.65
2019-06-10T02:27:27.776Z,55.79
2019-06-10T02:29:34.333Z,55.78
2019-06-10T02:31:43.169Z,56.00
2019-06-10T02:33:52.078Z,55.83
2019-06-10T02:35:57.332Z,55.84
2019-06-10T02:38:03.730Z,56.05
2019-06-10T02:40:16.648Z,55.66
2019-06-10T02:42:29.436Z,55.70
2019-06-10T02:44:33.115Z,55.79
2019-06-10T02:46:37.836Z,55.58
2019-06-10T02:48:44.333Z,55.58
2019-06-10T02:50:55.382Z,55.59
2019-06-10T02:53:04.036Z,55.55
2019-06-10T02:55:15.296Z,55.64
2019-06-10T02:57:28.307Z,55.47
2019-06-10T02:59:31.488Z,55.30
2019-06-10T03:01:38.180Z,55.23
2019-06-10T03:03:49.192Z,55.39
2019-06-10T03:05:53.663Z,54.85
2019-06-10T03:08:03.669Z,54.99
2019-06-10T03:10:08.851Z,54.51
2019-06-10T03:12:15.676Z,54.32
2019-06-10T03:14:25.037Z,53.79
2019-06-10T03:16:33.595Z,53.58
2019-06-10T03:18:39.995Z,53.42
2019-06-10T03:20:46.690Z,53.06
2019-06-10T03:22:53.103Z,52.81
2019-06-10T03:24:59.578Z,52.76
2019-06-10T03:27:05.975Z,52.39
2019-06-10T03:29:13.033Z,52.39
2019-06-10T03:31:22.075Z,51.51
2019-06-10T03:33:39.395Z,51.45
2019-06-10T03:35:36.614Z,51.06
2019-06-10T03:37:43.171Z,50.44
2019-06-10T03:39:49.596Z,50.55
2019-06-10T03:41:56.008Z,50.10
2019-06-10T03:44:02.729Z,49.37
2019-06-10T03:46:09.105Z,49.07
2019-06-10T03:48:15.603Z,48.80
2019-06-10T03:50:25.549Z,48.23
2019-06-10T03:52:32.327Z,47.62
2019-06-10T03:54:38.541Z,47.11
2019-06-10T03:56:52.523Z,45.62
2019-06-10T03:58:59.077Z,43.84
2019-06-10T04:01:05.689Z,41.73
2019-06-10T04:03:19.142Z,39.76
2019-06-10T04:05:27.015Z,38.13
2019-06-10T04:07:34.343Z,36.67
2019-06-10T04:09:42.514Z,35.01
2019-06-10T04:11:49.028Z,33.57
2019-06-10T04:13:55.502Z,33.02
2019-06-10T04:16:02.545Z,32.14
2019-06-10T04:18:09.226Z,31.55
2019-06-10T04:20:15.914Z,31.08
2019-06-10T04:22:24.058Z,30.55
2019-06-10T04:24:32.689Z,30.10
2019-06-10T04:26:39.475Z,29.35
2019-06-10T04:28:45.959Z,29.28
2019-06-10T04:30:53.543Z,29.72
2019-06-10T04:33:02.327Z,29.78
2019-06-10T04:35:09.422Z,29.04
2019-06-10T04:37:18.928Z,28.13
2019-06-10T04:39:26.425Z,27.64
2019-06-10T04:41:33.582Z,27.46
2019-06-10T04:43:40.062Z,28.76
2019-06-10T04:45:46.541Z,28.84
2019-06-10T04:47:52.921Z,28.67
2019-06-10T04:49:59.335Z,27.54
2019-06-10T04:52:05.887Z,25.99
2019-06-10T04:54:13.394Z,26.66
2019-06-10T04:56:24.155Z,25.59
2019-06-10T04:58:30.372Z,24.89
2019-06-10T05:00:37.563Z,24.36
2019-06-10T05:02:46.399Z,24.18
2019-06-10T05:04:53.298Z,23.68
2019-06-10T05:07:01.975Z,22.22
2019-06-10T05:09:07.932Z,22.24
2019-06-10T05:11:14.416Z,21.64
2019-06-10T05:13:23.771Z,21.58
2019-06-10T05:15:31.562Z,21.03
2019-06-10T05:17:37.237Z,21.52
2019-06-10T05:19:43.731Z,23.10
2019-06-10T05:21:52.370Z,25.14
2019-06-10T05:23:58.519Z,23.68
2019-06-10T05:26:05.121Z,24.05
2019-06-10T05:28:12.312Z,23.50
2019-06-10T05:30:20.012Z,22.73
2019-06-10T05:32:27.858Z,23.51
2019-06-10T05:34:34.981Z,25.60
2019-06-10T05:36:43.650Z,27.31
2019-06-10T05:38:52.375Z,28.03
2019-06-10T05:40:57.997Z,29.05
2019-06-10T05:43:04.742Z,26.44
2019-06-10T05:45:12.309Z,23.63
2019-06-10T05:47:19.235Z,22.42
2019-06-10T05:49:26.260Z,20.96
2019-06-10T05:51:35.370Z,20.10
2019-06-10T05:53:44.359Z,19.61
2019-06-10T05:55:49.624Z,19.56
2019-06-10T05:57:56.088Z,20.16
2019-06-10T06:00:10.790Z,20.95
2019-06-10T06:02:12.882Z,21.24
2019-06-10T06:04:18.998Z,22.13
2019-06-10T06:06:25.477Z,22.82
2019-06-10T06:08:34.913Z,22.14
2019-06-10T06:10:42.442Z,21.88
2019-06-10T06:12:52.546Z,22.07
2019-06-10T06:14:58.570Z,22.25
2019-06-10T06:17:05.067Z,20.67
2019-06-10T06:19:12.579Z,19.43
2019-06-10T06:21:26.679Z,18.34
2019-06-10T06:23:26.919Z,18.09
2019-06-10T06:25:39.787Z,17.58
2019-06-10T06:27:42.092Z,18.35
2019-06-10T06:29:48.762Z,18.13
2019-06-10T06:31:55.339Z,17.67
2019-06-10T06:34:03.223Z,17.24
2019-06-10T06:36:12.332Z,16.78
2019-06-10T06:38:18.145Z,17.12
2019-06-10T06:40:24.610Z,16.49
2019-06-10T06:42:33.521Z,16.52
2019-06-10T06:44:39.557Z,17.53
2019-06-10T06:46:46.106Z,18.45
2019-06-10T06:48:53.413Z,18.70
2019-06-10T06:51:04.706Z,17.88
2019-06-10T06:53:21.153Z,16.75
2019-06-10T06:55:17.932Z,15.64
2019-06-10T06:57:24.387Z,14.95
2019-06-10T06:59:33.544Z,14.46
2019-06-10T07:01:40.933Z,15.24
2019-06-10T07:03:47.594Z,14.78
2019-06-10T07:05:56.221Z,14.75
2019-06-10T07:08:04.531Z,14.50
2019-06-10T07:10:12.237Z,13.41
2019-06-10T07:12:23.005Z,14.50
2019-06-10T07:14:35.246Z,14.48
2019-06-10T07:16:41.669Z,14.73
2019-06-10T07:18:50.233Z,14.27
2019-06-10T07:20:55.981Z,14.27
2019-06-10T07:23:02.742Z,14.21
2019-06-10T07:25:12.198Z,14.89
2019-06-10T07:27:17.868Z,14.99
2019-06-10T07:29:24.267Z,14.93
2019-06-10T07:31:33.555Z,15.96
2019-06-10T07:33:43.030Z,15.44
2019-06-10T07:35:48.077Z,15.59
2019-06-10T07:37:55.773Z,17.92
2019-06-10T07:40:03.043Z,17.33
2019-06-10T07:42:09.876Z,15.51
2019-06-10T07:44:16.276Z,16.03
2019-06-10T07:46:23.969Z,16.90
2019-06-10T07:48:32.966Z,17.42
2019-06-10T07:50:39.325Z,18.43
2019-06-10T07:52:46.843Z,17.26
2019-06-10T07:54:54.856Z,16.50
2019-06-10T07:57:02.398Z,16.18
2019-06-10T07:59:09.114Z,16.45
2019-06-10T08:01:15.753Z,15.91
2019-06-10T08:03:22.567Z,15.11
2019-06-10T08:05:29.407Z,14.93
2019-06-10T08:07:37.116Z,14.38
2019-06-10T08:09:44.279Z,15.90
2019-06-10T08:11:53.159Z,17.19
2019-06-10T08:13:59.214Z,17.85
2019-06-10T08:16:05.759Z,18.31
2019-06-10T08:18:13.106Z,17.57
2019-06-10T08:20:39.154Z,18.30
2019-06-10T08:22:54.008Z,19.90
2019-06-10T08:24:54.614Z,19.11
2019-06-10T08:27:02.676Z,19.22
2019-06-10T08:29:09.275Z,20.06
2019-06-10T08:31:15.691Z,19.52
2019-06-10T08:33:24.034Z,19.96
2019-06-10T08:35:39.359Z,19.40
2019-06-10T08:37:38.767Z,20.62
2019-06-10T08:39:47.234Z,22.29
2019-06-10T08:41:55.129Z,27.13
2019-06-10T08:44:02.265Z,30.16
2019-06-10T08:46:08.937Z,31.68
2019-06-10T08:48:15.528Z,31.73
2019-06-10T08:50:24.681Z,32.65
2019-06-10T08:52:48.714Z,32.54
2019-06-10T08:54:40.644Z,33.01
2019-06-10T08:56:50.321Z,33.63
2019-06-10T08:58:55.217Z,34.05
2019-06-10T09:01:02.289Z,33.53
2019-06-10T09:03:09.214Z,33.77
2019-06-10T09:05:18.940Z,32.77
2019-06-10T09:07:25.372Z,33.50
2019-06-10T09:09:33.485Z,33.37
2019-06-10T09:11:43.167Z,33.79
2019-06-10T09:13:50.362Z,34.09
2019-06-10T09:16:11.797Z,34.60
2019-06-10T09:18:05.079Z,34.40
2019-06-10T09:20:14.626Z,34.93
2019-06-10T09:22:23.632Z,34.36
2019-06-10T09:24:29.303Z,34.93
2019-06-10T09:26:35.894Z,34.44
2019-06-10T09:28:47.116Z,34.62
2019-06-10T09:30:58.488Z,35.45
2019-06-10T09:33:03.474Z,35.48
2019-06-10T09:35:07.842Z,35.92
2019-06-10T09:37:14.340Z,35.94
2019-06-10T09:39:22.894Z,35.92
2019-06-10T09:41:37.334Z,35.73
2019-06-10T09:43:38.069Z,35.47
2019-06-10T09:45:49.145Z,35.92
2019-06-10T09:47:59.793Z,36.48
2019-06-10T09:50:03.356Z,36.93
2019-06-10T09:52:09.754Z,37.70
2019-06-10T09:54:16.295Z,37.46
2019-06-10T09:56:23.966Z,37.96
2019-06-10T09:58:32.953Z,38.01
2019-06-10T10:00:47.543Z,38.24
2019-06-10T10:02:55.609Z,38.38
2019-06-10T10:05:00.247Z,38.48
2019-06-10T10:07:08.154Z,38.07
2019-06-10T10:09:14.690Z,37.95
2019-06-10T10:11:23.526Z,38.71
2019-06-10T10:13:29.758Z,39.08
2019-06-10T10:15:36.840Z,38.72
2019-06-10T10:17:47.449Z,38.68
2019-06-10T10:19:56.596Z,39.12
2019-06-10T10:21:59.793Z,39.19
2019-06-10T10:24:10.736Z,39.41
2019-06-10T10:26:14.812Z,39.42
2019-06-10T10:28:23.032Z,39.54
2019-06-10T10:30:29.712Z,39.78
2019-06-10T10:32:36.110Z,39.54
2019-06-10T10:34:45.254Z,39.17
2019-06-10T10:36:55.434Z,39.50
2019-06-10T10:39:02.442Z,38.78
2019-06-10T10:41:13.333Z,38.67
2019-06-10T10:43:29.089Z,39.26
2019-06-10T10:45:29.808Z,39.24
2019-06-10T10:47:37.499Z,38.64
2019-06-10T10:49:44.981Z,38.39
2019-06-10T10:51:52.391Z,38.70
2019-06-10T10:54:28.669Z,39.01
2019-06-10T10:56:07.610Z,39.37
2019-06-10T10:58:13.914Z,40.01
2019-06-10T11:00:23.610Z,39.98
2019-06-10T11:02:32.170Z,39.70
2019-06-10T11:04:44.311Z,39.89
2019-06-10T11:06:54.304Z,39.95
2019-06-10T11:08:59.356Z,40.43
2019-06-10T11:11:06.150Z,40.80
2019-06-10T11:13:13.366Z,40.13
2019-06-10T11:15:24.326Z,40.50
2019-06-10T11:17:33.493Z,40.27
2019-06-10T11:19:39.084Z,40.25
2019-06-10T11:21:45.555Z,40.30
2019-06-10T11:23:58.830Z,40.30
2019-06-10T11:26:01.328Z,39.75
2019-06-10T11:28:07.941Z,39.76
2019-06-10T11:30:15.149Z,39.80
2019-06-10T11:32:21.610Z,40.43
2019-06-10T11:34:28.141Z,40.34
2019-06-10T11:36:34.606Z,39.70
2019-06-10T11:38:41.007Z,40.25
2019-06-10T11:40:47.544Z,40.83
2019-06-10T11:42:56.483Z,40.68
2019-06-10T11:45:02.930Z,40.97
2019-06-10T11:47:09.659Z,41.09
2019-06-10T11:49:16.101Z,41.15
2019-06-10T11:51:23.421Z,41.26
2019-06-10T11:53:30.183Z,41.55
2019-06-10T11:55:36.686Z,41.27
2019-06-10T11:57:43.301Z,41.02
2019-06-10T11:59:50.783Z,41.17
2019-06-10T12:02:00.419Z,41.13
2019-06-10T12:04:06.552Z,40.97
2019-06-10T12:06:13.794Z,41.13
2019-06-10T12:08:23.648Z,41.18
2019-06-10T12:10:29.593Z,41.12
2019-06-10T12:12:35.991Z,40.50
2019-06-10T12:14:43.141Z,40.90
2019-06-10T12:17:20.687Z,40.60
2019-06-10T12:18:59.002Z,40.45
2019-06-10T12:21:06.363Z,40.18
2019-06-10T12:23:13.496Z,39.70
2019-06-10T12:25:32.583Z,39.34
2019-06-10T12:27:28.639Z,40.01
2019-06-10T12:29:35.271Z,39.69
2019-06-10T12:31:44.838Z,39.85
2019-06-10T12:33:55.608Z,39.75
2019-06-10T12:36:06.161Z,39.79
2019-06-10T12:38:09.690Z,39.62
2019-06-10T12:40:17.274Z,39.24
2019-06-10T12:42:23.942Z,39.62
2019-06-10T12:44:31.307Z,40.10
2019-06-10T12:46:39.159Z,38.93
2019-06-10T12:48:45.721Z,38.49
2019-06-10T12:50:53.869Z,38.61
2019-06-10T12:53:04.642Z,38.27
2019-06-10T12:55:09.816Z,38.39
2019-06-10T12:57:16.591Z,38.56
2019-06-10T12:59:23.159Z,38.23
2019-06-10T13:01:29.891Z,38.52
2019-06-10T13:03:36.604Z,38.40
2019-06-10T13:05:44.815Z,38.51
2019-06-10T13:07:55.500Z,39.18
2019-06-10T13:10:03.982Z,38.88
2019-06-10T13:12:13.015Z,38.43
2019-06-10T13:14:19.211Z,38.05
2019-06-10T13:16:25.826Z,38.10
2019-06-10T13:18:32.355Z,38.10
2019-06-10T13:20:38.964Z,38.36
2019-06-10T13:22:45.372Z,38.87
2019-06-10T13:24:53.541Z,38.71
2019-06-10T13:27:01.396Z,38.94
2019-06-10T13:29:10.222Z,38.58
2019-06-10T13:31:16.671Z,38.30
2019-06-10T13:33:23.294Z,38.71
2019-06-10T13:35:31.717Z,38.29
2019-06-10T13:37:38.213Z,37.50
2019-06-10T13:39:45.148Z,38.40
2019-06-10T13:41:53.228Z,37.60
2019-06-10T13:44:02.089Z,37.98
2019-06-10T13:46:10.963Z,37.77
2019-06-10T13:48:18.498Z,37.56
2019-06-10T13:50:25.826Z,37.89
2019-06-10T13:52:32.280Z,38.18
2019-06-10T13:54:38.686Z,38.05
2019-06-10T13:56:47.549Z,38.37
2019-06-10T13:58:53.490Z,37.71
2019-06-10T14:01:00.051Z,36.94
2019-06-10T14:03:11.949Z,36.44
2019-06-10T14:05:18.207Z,36.82
2019-06-10T14:07:23.374Z,37.22
2019-06-10T14:09:32.986Z,36.46
2019-06-10T14:11:39.641Z,36.43
2019-06-10T14:13:46.889Z,36.41
2019-06-10T14:15:54.508Z,36.68
2019-06-10T14:18:03.838Z,36.43
2019-06-10T14:20:15.471Z,36.44
2019-06-10T14:22:23.021Z,36.53
2019-06-10T14:24:32.816Z,36.92
2019-06-10T14:26:42.962Z,37.46
2019-06-10T14:28:46.614Z,37.21
2019-06-10T14:30:54.647Z,37.26
2019-06-10T14:33:02.801Z,37.36
2019-06-10T14:35:11.145Z,37.17
2019-06-10T14:37:32.255Z,37.16
2019-06-10T14:39:26.045Z,37.18
2019-06-10T14:41:32.729Z,37.17
2019-06-10T14:43:39.439Z,36.95
2019-06-10T14:45:45.921Z,36.97
2019-06-10T14:47:54.384Z,37.05
2019-06-10T14:50:03.124Z,36.90
2019-06-10T14:52:12.262Z,37.01
2019-06-10T14:54:18.412Z,37.51
2019-06-10T14:56:25.056Z,37.47
2019-06-10T14:58:32.769Z,37.28
2019-06-10T15:00:39.468Z,37.74
2019-06-10T15:02:46.034Z,36.94
2019-06-10T15:04:53.221Z,37.43
2019-06-10T15:07:02.692Z,36.65
2019-06-10T15:09:09.534Z,36.42
2019-06-10T15:11:15.980Z,36.61
2019-06-10T15:13:23.610Z,36.50
2019-06-10T15:15:32.913Z,36.50
2019-06-10T15:17:38.052Z,36.49
2019-06-10T15:19:44.484Z,36.73
2019-06-10T15:21:52.353Z,37.10
2019-06-10T15:23:59.105Z,37.56
2019-06-10T15:26:05.907Z,37.35
2019-06-10T15:28:13.188Z,36.53
2019-06-10T15:30:26.648Z,36.59
2019-06-10T15:32:34.560Z,37.22
2019-06-10T15:34:43.008Z,37.22
2019-06-10T15:36:49.172Z,37.60
2019-06-10T15:38:55.635Z,37.87
2019-06-10T15:41:02.124Z,37.50
2019-06-10T15:43:09.634Z,37.76
2019-06-10T15:45:19.644Z,37.97
2019-06-10T15:47:26.710Z,38.24
2019-06-10T15:49:33.310Z,38.26
2019-06-10T15:51:39.879Z,37.90
2019-06-10T15:53:46.476Z,38.19
2019-06-10T15:56:12.956Z,38.59
2019-06-10T15:58:02.084Z,38.54
2019-06-10T16:00:12.225Z,38.46
2019-06-10T16:02:20.685Z,38.67
2019-06-10T16:04:29.588Z,39.09
2019-06-10T16:06:34.682Z,39.02
2019-06-10T16:08:43.159Z,39.14
2019-06-10T16:10:49.466Z,38.98
2019-06-10T16:12:56.005Z,38.81
2019-06-10T16:15:02.773Z,38.87
2019-06-10T16:17:09.361Z,39.20
2019-06-10T16:19:18.313Z,39.46
2019-06-10T16:21:25.105Z,39.75
2019-06-10T16:23:34.002Z,39.82
2019-06-10T16:25:42.473Z,39.87
2019-06-10T16:27:51.078Z,40.00
2019-06-10T16:29:56.267Z,40.22
2019-06-10T16:32:02.815Z,40.33
2019-06-10T16:34:09.411Z,40.58
2019-06-10T16:36:17.145Z,40.65
2019-06-10T16:38:26.919Z,40.92
2019-06-10T16:40:33.625Z,41.06
2019-06-10T16:42:42.946Z,41.44
2019-06-10T16:44:48.615Z,41.50
2019-06-10T16:46:55.293Z,41.46
2019-06-10T16:49:03.202Z,41.63
2019-06-10T16:51:13.269Z,41.75
2019-06-10T16:53:19.905Z,42.26
2019-06-10T16:55:27.386Z,42.22
2019-06-10T16:57:33.855Z,42.41
2019-06-10T16:59:42.782Z,42.63
2019-06-10T17:01:48.531Z,42.60
2019-06-10T17:03:54.962Z,42.87
2019-06-10T17:06:02.513Z,42.93
2019-06-10T17:08:09.174Z,43.18
2019-06-10T17:10:17.518Z,43.06
2019-06-10T17:12:25.985Z,43.32
2019-06-10T17:14:33.538Z,43.36
2019-06-10T17:16:40.678Z,43.49
2019-06-10T17:18:47.383Z,43.65
2019-06-10T17:20:55.382Z,43.74
2019-06-10T17:23:03.495Z,43.96
2019-06-10T17:25:10.183Z,44.18
2019-06-10T17:27:16.723Z,44.48
2019-06-10T17:29:27.107Z,44.75
2019-06-10T17:31:35.037Z,45.06
2019-06-10T17:33:42.751Z,45.22
2019-06-10T17:35:52.318Z,45.73
2019-06-10T17:37:59.610Z,45.83
2019-06-10T17:40:08.379Z,46.15
2019-06-10T17:42:14.884Z,46.45
2019-06-10T17:44:23.699Z,46.67
2019-06-10T17:46:30.683Z,46.89
2019-06-10T17:48:37.603Z,47.16
2019-06-10T17:50:44.195Z,47.40
2019-06-10T17:52:53.238Z,47.67
2019-06-10T17:54:58.889Z,47.85
2019-06-10T17:57:06.741Z,48.17
2019-06-10T17:59:13.214Z,48.21
2019-06-10T18:01:22.094Z,48.37
2019-06-10T18:03:29.265Z,48.39
2019-06-10T18:05:35.943Z,48.47
2019-06-10T18:07:42.333Z,48.64
2019-06-10T18:09:48.885Z,48.96
2019-06-10T18:11:55.329Z,49.04
2019-06-10T18:14:02.650Z,49.38
2019-06-10T18:16:09.444Z,49.67
2019-06-10T18:18:15.951Z,49.88
2019-06-10T18:20:24.432Z,50.12
2019-06-10T18:22:33.453Z,50.45
2019-06-10T18:24:39.246Z,50.61
2019-06-10T18:26:47.158Z,50.88
2019-06-10T18:29:04.515Z,51.21
2019-06-10T18:31:01.760Z,51.48
2019-06-10T18:33:08.338Z,51.60
2019-06-10T18:35:15.451Z,51.92
2019-06-10T18:37:22.761Z,52.07
2019-06-10T18:39:29.588Z,52.33
2019-06-10T18:41:37.468Z,52.61
2019-06-10T18:43:44.142Z,53.18
2019-06-10T18:45:53.348Z,53.02
2019-06-10T18:47:58.991Z,53.36
2019-06-10T18:50:09.299Z,53.52
2019-06-10T18:52:16.903Z,53.88
2019-06-10T18:54:23.385Z,54.07
2019-06-10T18:56:32.674Z,54.22
2019-06-10T18:58:39.024Z,54.47
2019-06-10T19:00:59.600Z,54.66
2019-06-10T19:03:09.334Z,54.80
2019-06-10T19:05:02.804Z,54.90
2019-06-10T19:07:10.442Z,55.23
2019-06-10T19:09:16.928Z,55.24
2019-06-10T19:11:23.390Z,55.48
2019-06-10T19:13:29.844Z,55.51
2019-06-10T19:15:37.788Z,55.79
2019-06-10T19:17:44.520Z,55.98
2019-06-10T19:19:53.118Z,55.90
2019-06-10T19:22:08.201Z,56.24
2019-06-10T19:24:07.576Z,56.21
2019-06-10T19:26:14.239Z,56.41
2019-06-10T19:28:23.165Z,56.46
2019-06-10T19:30:31.882Z,56.64
2019-06-10T19:32:40.093Z,56.83
2019-06-10T19:34:48.466Z,56.97
2019-06-10T19:36:55.364Z,56.98
2019-06-10T19:39:02.302Z,57.28
2019-06-10T19:41:10.811Z,57.33
2019-06-10T19:43:17.234Z,57.64
2019-06-10T19:45:24.285Z,57.78
2019-06-10T19:47:32.937Z,57.95
2019-06-10T19:49:41.183Z,58.10
2019-06-10T19:51:49.402Z,58.27
2019-06-10T19:53:55.794Z,58.41
2019-06-10T19:56:03.716Z,58.69
2019-06-10T19:58:10.587Z,59.10
2019-06-10T20:00:18.361Z,59.19
2019-06-10T20:02:26.454Z,59.13
2019-06-10T20:04:33.490Z,59.39
2019-06-10T20:06:45.199Z,59.44
2019-06-10T20:08:49.106Z,59.67
2019-06-10T20:10:55.569Z,59.53
2019-06-10T20:13:03.646Z,59.73
2019-06-10T20:15:23.727Z,59.83
2019-06-10T20:17:32.696Z,60.01
2019-06-10T20:19:39.852Z,60.14
2019-06-10T20:21:48.990Z,60.37
2019-06-10T20:23:57.716Z,60.50
2019-06-10T20:26:04.198Z,60.52
2019-06-10T20:28:13.084Z,60.56
2019-06-10T20:30:25.381Z,60.89
2019-06-10T20:32:33.470Z,61.05
2019-06-10T20:34:39.314Z,61.24
2019-06-10T20:36:46.895Z,61.30
2019-06-10T20:38:53.733Z,61.50
2019-06-10T20:41:02.440Z,61.65
2019-06-10T20:43:08.602Z,61.71
2019-06-10T20:45:15.487Z,61.83
2019-06-10T20:47:23.052Z,61.92
2019-06-10T20:49:29.776Z,61.97
2019-06-10T20:51:52.015Z,62.13
2019-06-10T20:53:46.431Z,62.21
2019-06-10T20:55:57.743Z,62.20
2019-06-10T20:58:07.088Z,62.57
2019-06-10T21:00:22.299Z,62.63
2019-06-10T21:02:22.696Z,62.81
2019-06-10T21:04:29.225Z,62.83
2019-06-10T21:06:39.203Z,62.90
2019-06-10T21:08:48.080Z,63.02
2019-06-10T21:10:54.625Z,63.07
2019-06-10T21:13:03.040Z,63.17
2019-06-10T21:15:12.597Z,63.40
2019-06-10T21:17:19.304Z,63.51
2019-06-10T21:19:25.791Z,63.79
2019-06-10T21:21:32.695Z,63.72
2019-06-10T21:23:40.566Z,63.87
2019-06-10T21:25:50.398Z,63.85
2019-06-10T21:27:56.034Z,63.85
2019-06-10T21:30:03.109Z,64.00
2019-06-10T21:32:12.448Z,64.13
2019-06-10T21:34:19.029Z,64.16
2019-06-10T21:36:25.523Z,64.47
2019-06-10T21:38:32.314Z,64.59
2019-06-10T21:40:42.129Z,64.67
2019-06-10T21:42:48.189Z,64.69
2019-06-10T21:44:54.590Z,64.67
2019-06-10T21:47:02.451Z,64.90
2019-06-10T21:49:09.414Z,65.06
2019-06-10T21:51:15.908Z,65.28
2019-06-10T21:53:23.476Z,65.34
2019-06-10T21:55:30.071Z,65.35
2019-06-10T21:57:36.937Z,65.41
2019-06-10T21:59:44.402Z,65.66
2019-06-10T22:01:51.633Z,65.75
2019-06-10T22:04:02.004Z,65.90
2019-06-10T22:06:07.839Z,65.88
2019-06-10T22:08:16.902Z,66.01
2019-06-10T22:10:25.327Z,66.01
2019-06-10T22:12:33.665Z,66.27
2019-06-10T22:14:42.321Z,66.52
2019-06-10T22:16:48.308Z,66.61
2019-06-10T22:18:54.954Z,66.79
2019-06-10T22:21:03.177Z,67.02
2019-06-10T22:23:09.786Z,66.99
2019-06-10T22:25:18.338Z,67.00
2019-06-10T22:27:24.897Z,67.22
2019-06-10T22:29:32.253Z,67.26
2019-06-10T22:31:38.949Z,67.32
2019-06-10T22:33:47.248Z,67.63
2019-06-10T22:35:57.478Z,67.68
2019-06-10T22:38:04.224Z,67.85
2019-06-10T22:40:12.462Z,67.85
2019-06-10T22:42:19.032Z,67.86
2019-06-10T22:44:26.554Z,68.02
2019-06-10T22:46:32.965Z,68.16
2019-06-10T22:48:39.500Z,68.29
2019-06-10T22:50:46.955Z,68.39
2019-06-10T22:52:55.534Z,68.53
2019-06-10T22:55:03.447Z,68.63
2019-06-10T22:57:09.727Z,68.54
2019-06-10T22:59:17.194Z,68.85
2019-06-10T23:01:34.473Z,69.02
2019-06-10T23:03:36.168Z,69.10
2019-06-10T23:05:43.371Z,69.25
2019-06-10T23:07:52.817Z,69.41
2019-06-10T23:09:59.078Z,69.53
2019-06-10T23:12:05.811Z,69.58
2019-06-10T23:14:13.771Z,69.66
2019-06-10T23:16:22.238Z,69.91
2019-06-10T23:18:28.617Z,70.06
2019-06-10T23:20:35.805Z,70.18
2019-06-10T23:22:42.292Z,70.34
2019-06-10T23:24:49.547Z,70.51
2019-06-10T23:26:58.000Z,70.71
2019-06-10T23:29:04.767Z,70.74
2019-06-10T23:31:12.763Z,70.99
2019-06-10T23:33:19.549Z,70.93
2019-06-10T23:35:27.214Z,71.13
2019-06-10T23:37:34.808Z,71.06
2019-06-10T23:39:42.624Z,71.29
2019-06-10T23:41:50.456Z,71.32
2019-06-10T23:43:59.180Z,71.66
2019-06-10T23:46:07.506Z,71.75
2019-06-10T23:48:15.898Z,71.88
2019-06-10T23:50:22.758Z,72.04
2019-06-10T23:52:29.486Z,72.04
2019-06-10T23:54:36.093Z,72.16
2019-06-10T23:56:43.634Z,72.43
2019-06-10T23:58:52.380Z,72.59
